createdAt,value
2023-02-17T00:00:47.261Z,12.09
2023-02-17T00:01:47.264Z,12.05
2023-02-17T00:02:47.324Z,12.16
2023-02-17T00:03:47.313Z,12.17
2023-02-17T00:04:47.252Z,12.16
2023-02-17T00:05:49.361Z,12.04
2023-02-17T00:06:47.243Z,12.07
2023-02-17T00:07:47.246Z,12.02
2023-02-17T00:08:47.240Z,12.07
2023-02-17T00:09:47.239Z,12.07
2023-02-17T00:10:47.251Z,12.16
2023-02-17T00:11:47.233Z,12.16
2023-02-17T00:12:47.232Z,12.21
2023-02-17T00:13:47.238Z,12.17
2023-02-17T00:14:47.223Z,12.20
2023-02-17T00:15:47.248Z,12.12
2023-02-17T00:16:47.218Z,12.05
2023-02-17T00:17:47.217Z,12.12
2023-02-17T00:18:47.236Z,12.09
2023-02-17T00:19:47.214Z,12.14
2023-02-17T00:20:47.216Z,12.20
2023-02-17T00:21:47.220Z,11.99
2023-02-17T00:22:47.203Z,11.98
2023-02-17T00:23:47.219Z,11.73
2023-02-17T00:24:47.201Z,11.76
2023-02-17T00:25:47.207Z,11.76
2023-02-17T00:26:47.195Z,11.79
2023-02-17T00:27:47.189Z,11.73
2023-02-17T00:28:47.189Z,11.67
2023-02-17T00:29:47.190Z,11.57
2023-02-17T00:30:47.187Z,11.62
2023-02-17T00:31:47.321Z,11.49
2023-02-17T00:32:47.190Z,11.49
2023-02-17T00:33:47.181Z,11.51
2023-02-17T00:34:47.198Z,11.37
2023-02-17T00:35:47.179Z,11.29
2023-02-17T00:36:47.172Z,11.22
2023-02-17T00:37:47.171Z,11.28
2023-02-17T00:38:47.169Z,11.37
2023-02-17T00:39:47.166Z,11.36
2023-02-17T00:40:47.160Z,11.40
2023-02-17T00:41:47.162Z,11.17
2023-02-17T00:42:47.154Z,11.14
2023-02-17T00:43:47.160Z,11.15
2023-02-17T00:44:47.149Z,11.17
2023-02-17T00:45:47.148Z,11.25
2023-02-17T00:46:47.180Z,11.35
2023-02-17T00:47:47.148Z,11.18
2023-02-17T00:48:47.182Z,11.17
2023-02-17T00:49:47.141Z,11.14
2023-02-17T00:50:47.158Z,11.11
2023-02-17T00:51:47.144Z,11.14
2023-02-17T00:52:47.128Z,11.25
2023-02-17T00:53:47.130Z,11.27
2023-02-17T00:54:47.129Z,11.27
2023-02-17T00:55:47.154Z,11.39
2023-02-17T00:56:47.132Z,11.28
2023-02-17T00:57:47.117Z,11.25
2023-02-17T00:58:47.137Z,11.32
2023-02-17T00:59:47.123Z,11.25
2023-02-17T01:00:47.109Z,11.33
2023-02-17T01:01:47.184Z,11.36
2023-02-17T01:02:47.106Z,11.40
2023-02-17T01:03:47.108Z,11.36
2023-02-17T01:04:47.147Z,11.17
2023-02-17T01:05:47.093Z,11.14
2023-02-17T01:06:47.112Z,11.21
2023-02-17T01:07:47.095Z,11.22
2023-02-17T01:08:47.090Z,11.29
2023-02-17T01:09:47.088Z,11.25
2023-02-17T01:10:47.085Z,11.19
2023-02-17T01:11:47.085Z,11.27
2023-02-17T01:12:47.085Z,11.35
2023-02-17T01:13:47.089Z,11.37
2023-02-17T01:14:47.067Z,11.39
2023-02-17T01:15:47.092Z,11.36
2023-02-17T01:16:47.064Z,11.24
2023-02-17T01:17:47.062Z,11.42
2023-02-17T01:18:47.063Z,11.27
2023-02-17T01:19:47.062Z,11.37
2023-02-17T01:20:47.069Z,11.36
2023-02-17T01:21:47.066Z,11.42
2023-02-17T01:22:47.069Z,11.39
2023-02-17T01:23:47.048Z,11.35
2023-02-17T01:24:47.044Z,11.32
2023-02-17T01:25:47.049Z,11.39
2023-02-17T01:26:47.036Z,11.33
2023-02-17T01:27:47.044Z,11.33
2023-02-17T01:28:47.026Z,11.37
2023-02-17T01:29:47.031Z,11.28
2023-02-17T01:30:47.056Z,11.32
2023-02-17T01:31:47.071Z,11.36
2023-02-17T01:32:47.064Z,11.37
2023-02-17T01:33:47.018Z,11.25
2023-02-17T01:34:47.025Z,11.27
2023-02-17T01:35:47.017Z,11.29
2023-02-17T01:36:47.012Z,11.29
2023-02-17T01:37:47.007Z,11.36
2023-02-17T01:38:47.041Z,11.33
2023-02-17T01:39:47.003Z,11.40
2023-02-17T01:40:46.992Z,11.29
2023-02-17T01:41:46.998Z,11.21
2023-02-17T01:42:46.989Z,11.25
2023-02-17T01:43:46.985Z,11.28
2023-02-17T01:44:46.984Z,11.36
2023-02-17T01:45:46.987Z,11.39
2023-02-17T01:46:47.024Z,11.37
2023-02-17T01:47:46.970Z,11.36
2023-02-17T01:48:46.971Z,11.37
2023-02-17T01:49:46.970Z,11.37
2023-02-17T01:50:46.971Z,11.40
2023-02-17T01:51:46.965Z,11.36
2023-02-17T01:52:46.965Z,11.28
2023-02-17T01:53:46.962Z,11.35
2023-02-17T01:54:46.970Z,11.28
2023-02-17T01:55:46.958Z,11.37
2023-02-17T01:56:46.942Z,11.39
2023-02-17T01:57:46.947Z,11.33
2023-02-17T01:58:46.949Z,11.35
2023-02-17T01:59:46.962Z,11.32
2023-02-17T02:00:46.936Z,11.47
2023-02-17T02:01:47.057Z,11.32
2023-02-17T02:02:47.038Z,11.32
2023-02-17T02:03:46.934Z,11.27
2023-02-17T02:04:46.921Z,11.37
2023-02-17T02:05:46.927Z,11.33
2023-02-17T02:06:46.920Z,11.35
2023-02-17T02:07:46.914Z,11.36
2023-02-17T02:08:46.918Z,11.39
2023-02-17T02:09:46.906Z,11.52
2023-02-17T02:10:46.928Z,11.46
2023-02-17T02:11:46.899Z,11.42
2023-02-17T02:12:46.906Z,11.47
2023-02-17T02:13:46.896Z,11.52
2023-02-17T02:14:46.901Z,11.49
2023-02-17T02:15:46.897Z,11.54
2023-02-17T02:16:46.942Z,11.46
2023-02-17T02:17:46.889Z,11.55
2023-02-17T02:18:46.885Z,11.44
2023-02-17T02:19:46.896Z,11.44
2023-02-17T02:20:46.893Z,11.36
2023-02-17T02:21:46.879Z,11.25
2023-02-17T02:22:46.884Z,11.32
2023-02-17T02:23:46.887Z,11.25
2023-02-17T02:24:46.873Z,11.24
2023-02-17T02:25:46.866Z,11.29
2023-02-17T02:26:46.892Z,11.35
2023-02-17T02:27:46.871Z,11.18
2023-02-17T02:28:46.867Z,11.11
2023-02-17T02:29:46.862Z,11.28
2023-02-17T02:30:46.931Z,11.28
2023-02-17T02:31:46.911Z,11.17
2023-02-17T02:32:46.856Z,11.15
2023-02-17T02:33:46.849Z,11.14
2023-02-17T02:34:46.852Z,11.09
2023-02-17T02:35:46.852Z,11.03
2023-02-17T02:36:46.847Z,11.04
2023-02-17T02:37:46.842Z,11.02
2023-02-17T02:38:46.834Z,10.99
2023-02-17T02:39:46.837Z,11.03
2023-02-17T02:40:46.830Z,10.92
2023-02-17T02:41:46.833Z,10.94
2023-02-17T02:42:46.850Z,10.92
2023-02-17T02:43:46.819Z,10.78
2023-02-17T02:44:46.828Z,10.88
2023-02-17T02:45:46.862Z,10.97
2023-02-17T02:46:46.813Z,10.99
2023-02-17T02:47:46.809Z,10.91
2023-02-17T02:48:46.804Z,11.03
2023-02-17T02:49:46.802Z,11.06
2023-02-17T02:50:46.803Z,10.97
2023-02-17T02:51:46.799Z,10.96
2023-02-17T02:52:46.798Z,10.86
2023-02-17T02:53:46.787Z,10.91
2023-02-17T02:54:46.794Z,10.79
2023-02-17T02:55:46.782Z,10.78
2023-02-17T02:56:46.794Z,10.78
2023-02-17T02:57:46.776Z,10.81
2023-02-17T02:58:46.806Z,10.89
2023-02-17T02:59:46.773Z,10.89
2023-02-17T03:00:46.805Z,10.81
2023-02-17T03:01:46.773Z,10.84
2023-02-17T03:02:46.767Z,10.81
2023-02-17T03:03:46.797Z,10.84
2023-02-17T03:04:46.756Z,10.86
2023-02-17T03:05:46.751Z,10.76
2023-02-17T03:06:46.761Z,10.84
2023-02-17T03:07:46.747Z,10.81
2023-02-17T03:08:46.756Z,10.78
2023-02-17T03:09:46.743Z,10.79
2023-02-17T03:10:46.739Z,10.76
2023-02-17T03:11:46.747Z,10.88
2023-02-17T03:12:46.743Z,10.99
2023-02-17T03:13:46.728Z,10.88
2023-02-17T03:14:46.753Z,10.85
2023-02-17T03:15:46.724Z,10.86
2023-02-17T03:16:46.803Z,10.91
2023-02-17T03:17:46.717Z,10.85
2023-02-17T03:18:46.717Z,10.76
2023-02-17T03:19:46.713Z,10.81
2023-02-17T03:20:46.720Z,10.94
2023-02-17T03:21:46.703Z,10.79
2023-02-17T03:22:46.714Z,10.86
2023-02-17T03:23:46.713Z,10.81
2023-02-17T03:24:46.699Z,10.73
2023-02-17T03:25:46.690Z,10.78
2023-02-17T03:26:46.691Z,10.84
2023-02-17T03:27:46.698Z,10.86
2023-02-17T03:28:46.701Z,10.85
2023-02-17T03:29:46.691Z,10.76
2023-02-17T03:30:46.700Z,10.85
2023-02-17T03:31:46.789Z,10.91
2023-02-17T03:32:46.675Z,10.76
2023-02-17T03:33:46.675Z,10.76
2023-02-17T03:34:46.670Z,10.79
2023-02-17T03:35:46.668Z,10.66
2023-02-17T03:36:46.661Z,10.79
2023-02-17T03:37:46.654Z,10.85
2023-02-17T03:38:46.653Z,10.85
2023-02-17T03:39:46.660Z,10.91
2023-02-17T03:40:46.650Z,10.86
2023-02-17T03:41:46.648Z,10.81
2023-02-17T03:42:46.654Z,10.71
2023-02-17T03:43:46.634Z,10.78
2023-02-17T03:44:46.641Z,10.81
2023-02-17T03:45:46.650Z,10.82
2023-02-17T03:46:46.659Z,10.82
2023-02-17T03:47:46.628Z,10.74
2023-02-17T03:48:46.631Z,10.88
2023-02-17T03:49:46.646Z,10.79
2023-02-17T03:50:46.617Z,10.91
2023-02-17T03:51:46.630Z,10.76
2023-02-17T03:52:46.620Z,10.81
2023-02-17T03:53:46.610Z,10.85
2023-02-17T03:54:46.607Z,10.78
2023-02-17T03:55:46.601Z,10.78
2023-02-17T03:56:46.612Z,10.81
2023-02-17T03:57:46.591Z,10.89
2023-02-17T03:58:46.589Z,10.84
2023-02-17T03:59:46.585Z,10.79
2023-02-17T04:00:46.593Z,10.81
2023-02-17T04:01:46.576Z,10.86
2023-02-17T04:02:46.607Z,10.73
2023-02-17T04:03:46.654Z,10.82
2023-02-17T04:04:46.572Z,10.76
2023-02-17T04:05:46.573Z,10.76
2023-02-17T04:06:46.575Z,10.78
2023-02-17T04:07:46.562Z,10.85
2023-02-17T04:08:46.559Z,10.81
2023-02-17T04:09:46.551Z,10.79
2023-02-17T04:10:46.553Z,10.82
2023-02-17T04:11:46.549Z,10.85
2023-02-17T04:12:46.551Z,10.86
2023-02-17T04:13:46.547Z,10.86
2023-02-17T04:14:46.547Z,10.89
2023-02-17T04:15:46.587Z,10.82
2023-02-17T04:16:46.534Z,10.81
2023-02-17T04:17:46.526Z,10.91
2023-02-17T04:18:46.544Z,10.79
2023-02-17T04:19:46.518Z,10.82
2023-02-17T04:20:46.521Z,10.91
2023-02-17T04:21:46.515Z,10.96
2023-02-17T04:22:46.565Z,10.92
2023-02-17T04:23:46.520Z,10.94
2023-02-17T04:24:46.506Z,10.89
2023-02-17T04:25:46.508Z,10.78
2023-02-17T04:26:46.509Z,10.88
2023-02-17T04:27:46.499Z,10.86
2023-02-17T04:28:46.498Z,10.89
2023-02-17T04:29:46.486Z,10.96
2023-02-17T04:30:46.559Z,10.84
2023-02-17T04:31:46.611Z,10.85
2023-02-17T04:32:46.484Z,10.88
2023-02-17T04:33:46.476Z,10.76
2023-02-17T04:34:46.503Z,10.78
2023-02-17T04:35:46.481Z,10.89
2023-02-17T04:36:46.474Z,10.73
2023-02-17T04:37:46.465Z,10.86
2023-02-17T04:38:46.461Z,10.78
2023-02-17T04:39:46.456Z,10.76
2023-02-17T04:40:46.456Z,10.82
2023-02-17T04:41:46.452Z,10.89
2023-02-17T04:42:46.457Z,11.00
2023-02-17T04:43:46.447Z,11.02
2023-02-17T04:44:46.450Z,10.86
2023-02-17T04:45:46.465Z,10.96
2023-02-17T04:46:46.437Z,10.97
2023-02-17T04:47:46.441Z,11.02
2023-02-17T04:48:46.432Z,11.02
2023-02-17T04:49:46.426Z,11.06
2023-02-17T04:50:46.449Z,10.85
2023-02-17T04:51:46.422Z,10.82
2023-02-17T04:52:46.420Z,11.03
2023-02-17T04:53:46.416Z,11.06
2023-02-17T04:54:46.416Z,11.14
2023-02-17T04:55:46.406Z,11.02
2023-02-17T04:56:46.412Z,11.14
2023-02-17T04:57:46.404Z,11.11
2023-02-17T04:58:46.407Z,11.11
2023-02-17T04:59:46.394Z,11.09
2023-02-17T05:00:46.398Z,11.10
2023-02-17T05:01:46.414Z,11.00
2023-02-17T05:02:46.386Z,11.00
2023-02-17T05:03:46.390Z,11.11
2023-02-17T05:04:46.448Z,11.06
2023-02-17T05:05:46.377Z,11.07
2023-02-17T05:06:46.396Z,11.14
2023-02-17T05:07:46.371Z,11.07
2023-02-17T05:08:46.367Z,11.07
2023-02-17T05:09:46.367Z,11.06
2023-02-17T05:10:46.368Z,11.07
2023-02-17T05:11:46.357Z,11.03
2023-02-17T05:12:46.363Z,11.06
2023-02-17T05:13:46.347Z,10.99
2023-02-17T05:14:46.354Z,11.06
2023-02-17T05:15:46.380Z,11.06
2023-02-17T05:16:46.350Z,11.11
2023-02-17T05:17:46.346Z,11.09
2023-02-17T05:18:46.339Z,11.06
2023-02-17T05:19:46.333Z,11.03
2023-02-17T05:20:46.343Z,11.06
2023-02-17T05:21:46.325Z,11.02
2023-02-17T05:22:46.353Z,11.09
2023-02-17T05:23:46.326Z,11.03
2023-02-17T05:24:46.332Z,11.10
2023-02-17T05:25:46.321Z,11.09
2023-02-17T05:26:46.314Z,11.10
2023-02-17T05:27:46.310Z,11.11
2023-02-17T05:28:46.311Z,11.11
2023-02-17T05:29:46.306Z,11.09
2023-02-17T05:30:46.311Z,11.04
2023-02-17T05:31:46.377Z,11.07
2023-02-17T05:32:46.298Z,11.07
2023-02-17T05:33:46.289Z,11.06
2023-02-17T05:34:46.289Z,11.02
2023-02-17T05:35:46.284Z,10.82
2023-02-17T05:36:46.289Z,10.97
2023-02-17T05:37:46.284Z,10.97
2023-02-17T05:38:46.298Z,11.03
2023-02-17T05:39:46.275Z,11.07
2023-02-17T05:40:46.276Z,11.03
2023-02-17T05:41:46.266Z,10.96
2023-02-17T05:42:46.270Z,11.02
2023-02-17T05:43:46.265Z,11.02
2023-02-17T05:44:46.262Z,11.03
2023-02-17T05:45:46.259Z,11.10
2023-02-17T05:46:46.306Z,11.17
2023-02-17T05:47:46.247Z,11.17
2023-02-17T05:48:46.255Z,11.15
2023-02-17T05:49:46.243Z,11.02
2023-02-17T05:50:46.251Z,11.06
2023-02-17T05:51:46.237Z,10.99
2023-02-17T05:52:46.240Z,11.11
2023-02-17T05:53:46.234Z,11.15
2023-02-17T05:54:46.249Z,11.18
2023-02-17T05:55:48.579Z,11.14
2023-02-17T05:56:46.232Z,11.25
2023-02-17T05:57:46.221Z,11.24
2023-02-17T05:58:46.224Z,11.25
2023-02-17T05:59:46.210Z,11.32
2023-02-17T06:00:46.219Z,11.28
2023-02-17T06:01:46.219Z,11.17
2023-02-17T06:02:46.248Z,11.21
2023-02-17T06:03:46.206Z,11.19
2023-02-17T06:04:46.306Z,11.14
2023-02-17T06:05:46.196Z,11.06
2023-02-17T06:06:46.201Z,11.09
2023-02-17T06:07:46.193Z,11.14
2023-02-17T06:08:46.204Z,11.21
2023-02-17T06:09:47.302Z,11.11
2023-02-17T06:10:46.208Z,11.03
2023-02-17T06:11:46.178Z,11.15
2023-02-17T06:12:46.184Z,11.21
2023-02-17T06:13:46.172Z,11.17
2023-02-17T06:14:46.173Z,11.19
2023-02-17T06:15:46.198Z,11.25
2023-02-17T06:16:46.165Z,11.14
2023-02-17T06:17:46.166Z,11.25
2023-02-17T06:18:46.160Z,11.21
2023-02-17T06:19:46.157Z,11.03
2023-02-17T06:20:46.162Z,11.11
2023-02-17T06:21:46.155Z,11.04
2023-02-17T06:22:46.145Z,11.06
2023-02-17T06:23:46.150Z,11.07
2023-02-17T06:24:46.143Z,11.17
2023-02-17T06:25:46.135Z,11.17
2023-02-17T06:26:46.153Z,11.27
2023-02-17T06:27:46.132Z,11.17
2023-02-17T06:28:46.138Z,11.09
2023-02-17T06:29:46.128Z,11.18
2023-02-17T06:30:46.137Z,11.25
2023-02-17T06:31:46.221Z,11.14
2023-02-17T06:32:46.122Z,11.22
2023-02-17T06:33:46.115Z,11.36
2023-02-17T06:34:46.105Z,11.37
2023-02-17T06:35:46.105Z,11.37
2023-02-17T06:36:46.110Z,11.36
2023-02-17T06:37:46.102Z,11.39
2023-02-17T06:38:46.091Z,11.37
2023-02-17T06:39:46.095Z,11.37
2023-02-17T06:40:46.096Z,11.32
2023-02-17T06:41:46.093Z,11.33
2023-02-17T06:42:46.111Z,11.17
2023-02-17T06:43:46.080Z,11.25
2023-02-17T06:44:46.078Z,11.27
2023-02-17T06:45:46.100Z,11.39
2023-02-17T06:46:46.064Z,11.35
2023-02-17T06:47:46.066Z,11.35
2023-02-17T06:48:46.072Z,11.32
2023-02-17T06:49:46.063Z,11.25
2023-02-17T06:50:46.058Z,11.29
2023-02-17T06:51:46.053Z,11.15
2023-02-17T06:52:46.049Z,11.33
2023-02-17T06:53:46.054Z,11.32
2023-02-17T06:54:46.043Z,11.29
2023-02-17T06:55:46.050Z,11.24
2023-02-17T06:56:46.041Z,11.28
2023-02-17T06:57:46.042Z,11.40
2023-02-17T06:58:46.056Z,11.36
2023-02-17T06:59:46.031Z,11.37
2023-02-17T07:00:46.023Z,11.35
2023-02-17T07:01:46.090Z,11.35
2023-02-17T07:02:46.144Z,11.43
2023-02-17T07:03:46.023Z,11.32
2023-02-17T07:04:46.025Z,11.39
2023-02-17T07:05:46.012Z,11.33
2023-02-17T07:06:46.017Z,11.47
2023-02-17T07:07:46.016Z,11.33
2023-02-17T07:08:46.005Z,11.29
2023-02-17T07:09:46.005Z,11.35
2023-02-17T07:10:46.001Z,11.39
2023-02-17T07:11:46.029Z,11.36
2023-02-17T07:12:46.000Z,11.42
2023-02-17T07:13:45.997Z,11.49
2023-02-17T07:14:46.014Z,11.44
2023-02-17T07:15:45.990Z,11.42
2023-02-17T07:16:46.043Z,11.47
2023-02-17T07:17:45.980Z,11.42
2023-02-17T07:18:45.985Z,11.35
2023-02-17T07:19:45.978Z,11.40
2023-02-17T07:20:45.975Z,11.52
2023-02-17T07:21:45.970Z,11.40
2023-02-17T07:22:45.981Z,11.36
2023-02-17T07:23:45.965Z,11.52
2023-02-17T07:24:45.961Z,11.57
2023-02-17T07:25:45.980Z,11.49
2023-02-17T07:26:45.955Z,11.58
2023-02-17T07:27:45.960Z,11.58
2023-02-17T07:28:45.956Z,11.61
2023-02-17T07:29:45.944Z,11.60
2023-02-17T07:30:46.037Z,11.69
2023-02-17T07:31:45.981Z,11.79
2023-02-17T07:32:45.935Z,11.79
2023-02-17T07:33:45.938Z,11.94
2023-02-17T07:34:45.931Z,11.78
2023-02-17T07:35:45.957Z,11.70
2023-02-17T07:36:45.922Z,11.73
2023-02-17T07:37:45.930Z,11.67
2023-02-17T07:38:45.919Z,11.78
2023-02-17T07:39:45.915Z,11.90
2023-02-17T07:40:45.916Z,11.79
2023-02-17T07:41:45.912Z,11.70
2023-02-17T07:42:45.912Z,11.76
2023-02-17T07:43:45.904Z,11.80
2023-02-17T07:44:45.894Z,11.79
2023-02-17T07:45:45.940Z,11.76
2023-02-17T07:46:45.915Z,11.70
2023-02-17T07:47:45.896Z,11.79
2023-02-17T07:48:45.892Z,11.90
2023-02-17T07:49:45.883Z,11.96
2023-02-17T07:50:45.879Z,12.04
2023-02-17T07:51:45.879Z,11.99
2023-02-17T07:52:45.877Z,12.01
2023-02-17T07:53:45.874Z,11.99
2023-02-17T07:54:45.877Z,12.07
2023-02-17T07:55:45.868Z,12.12
2023-02-17T07:56:45.860Z,12.04
2023-02-17T07:57:45.864Z,11.96
2023-02-17T07:58:45.866Z,12.04
2023-02-17T07:59:45.857Z,12.12
2023-02-17T08:00:45.853Z,12.14
2023-02-17T08:01:45.914Z,12.12
2023-02-17T08:02:45.867Z,12.16
2023-02-17T08:03:45.843Z,12.19
2023-02-17T08:04:45.842Z,12.24
2023-02-17T08:05:48.090Z,12.20
2023-02-17T08:06:45.837Z,12.28
2023-02-17T08:07:45.834Z,12.23
2023-02-17T08:08:45.828Z,12.21
2023-02-17T08:09:45.838Z,12.14
2023-02-17T08:10:45.820Z,12.23
2023-02-17T08:11:47.689Z,12.23
2023-02-17T08:12:45.817Z,12.29
2023-02-17T08:13:45.821Z,12.24
2023-02-17T08:14:45.816Z,12.29
2023-02-17T08:15:45.814Z,12.31
2023-02-17T08:16:45.871Z,12.38
2023-02-17T08:17:45.810Z,12.46
2023-02-17T08:18:45.824Z,12.41
2023-02-17T08:19:48.914Z,12.46
2023-02-17T08:20:45.832Z,12.50
2023-02-17T08:21:45.799Z,12.42
2023-02-17T08:22:45.810Z,12.47
2023-02-17T08:23:45.836Z,12.41
2023-02-17T08:24:45.788Z,12.50
2023-02-17T08:25:45.788Z,12.46
2023-02-17T08:26:45.795Z,12.57
2023-02-17T08:27:45.794Z,12.57
2023-02-17T08:28:45.789Z,12.68
2023-02-17T08:29:45.813Z,12.62
2023-02-17T08:30:45.876Z,12.70
2023-02-17T08:31:45.906Z,12.71
2023-02-17T08:32:45.793Z,12.65
2023-02-17T08:33:45.768Z,12.71
2023-02-17T08:34:45.793Z,12.59
2023-02-17T08:35:45.788Z,12.78
2023-02-17T08:36:45.771Z,12.70
2023-02-17T08:37:45.759Z,12.65
2023-02-17T08:38:45.763Z,12.72
2023-02-17T08:39:45.793Z,12.65
2023-02-17T08:40:45.765Z,12.68
2023-02-17T08:41:45.751Z,12.79
2023-02-17T08:42:45.769Z,12.64
2023-02-17T08:43:45.747Z,12.59
2023-02-17T08:44:45.738Z,12.56
2023-02-17T08:45:45.945Z,12.50
2023-02-17T08:46:45.752Z,12.52
2023-02-17T08:47:45.731Z,12.54
2023-02-17T08:48:45.731Z,12.47
2023-02-17T08:49:45.747Z,12.53
2023-02-17T08:50:45.741Z,12.60
2023-02-17T08:51:45.785Z,12.53
2023-02-17T08:52:45.736Z,12.56
2023-02-17T08:53:45.725Z,12.74
2023-02-17T08:54:45.724Z,12.74
2023-02-17T08:55:49.581Z,12.82
2023-02-17T08:56:45.746Z,12.75
2023-02-17T08:57:45.762Z,12.68
2023-02-17T08:58:45.766Z,12.62
2023-02-17T08:59:45.707Z,12.54
2023-02-17T09:00:45.698Z,12.52
2023-02-17T09:01:45.808Z,12.41
2023-02-17T09:02:45.715Z,12.39
2023-02-17T09:03:45.723Z,12.49
2023-02-17T09:04:45.714Z,12.46
2023-02-17T09:05:45.705Z,12.46
2023-02-17T09:06:45.753Z,12.31
2023-02-17T09:07:45.709Z,12.50
2023-02-17T09:08:45.669Z,12.39
2023-02-17T09:09:45.740Z,12.47
2023-02-17T09:10:45.699Z,12.57
2023-02-17T09:11:45.671Z,12.57
2023-02-17T09:12:45.667Z,12.47
2023-02-17T09:13:45.669Z,12.52
2023-02-17T09:14:45.715Z,12.56
2023-02-17T09:15:45.719Z,12.57
2023-02-17T09:16:45.760Z,12.54
2023-02-17T09:17:45.665Z,12.59
2023-02-17T09:18:45.669Z,12.70
2023-02-17T09:19:45.671Z,12.64
2023-02-17T09:20:45.665Z,12.70
2023-02-17T09:21:45.722Z,12.62
2023-02-17T09:22:45.665Z,12.56
2023-02-17T09:23:45.647Z,12.64
2023-02-17T09:24:45.637Z,12.60
2023-02-17T09:25:45.657Z,12.60
2023-02-17T09:26:45.663Z,12.72
2023-02-17T09:27:45.639Z,12.70
2023-02-17T09:28:45.648Z,12.42
2023-02-17T09:29:45.721Z,12.45
2023-02-17T09:30:45.873Z,12.53
2023-02-17T09:31:45.756Z,12.52
2023-02-17T09:32:45.675Z,12.42
2023-02-17T09:33:45.706Z,12.57
2023-02-17T09:34:45.672Z,12.46
2023-02-17T09:35:45.669Z,12.45
2023-02-17T09:36:45.615Z,12.45
2023-02-17T09:37:45.624Z,12.56
2023-02-17T09:38:45.724Z,12.68
2023-02-17T09:39:45.612Z,12.56
2023-02-17T09:40:45.710Z,12.56
2023-02-17T09:41:45.601Z,12.57
2023-02-17T09:42:45.590Z,12.54
2023-02-17T09:43:45.616Z,12.65
2023-02-17T09:44:45.613Z,12.65
2023-02-17T09:45:45.589Z,12.64
2023-02-17T09:47:00.504Z,12.64
2023-02-17T09:47:45.670Z,12.64
2023-02-17T09:48:45.623Z,12.68
2023-02-17T09:49:45.657Z,12.70
2023-02-17T09:50:45.594Z,12.68
2023-02-17T09:51:45.576Z,12.75
2023-02-17T09:52:45.599Z,12.75
2023-02-17T09:53:45.570Z,12.78
2023-02-17T09:54:45.589Z,12.67
2023-02-17T09:55:45.560Z,12.59
2023-02-17T09:56:45.640Z,12.68
2023-02-17T09:57:45.563Z,12.70
2023-02-17T09:58:45.582Z,12.71
2023-02-17T09:59:45.547Z,12.71
2023-02-17T10:00:45.550Z,12.79
2023-02-17T10:01:45.571Z,12.70
2023-02-17T10:02:45.593Z,12.67
2023-02-17T10:03:45.617Z,12.56
2023-02-17T10:04:45.617Z,12.62
2023-02-17T10:05:45.567Z,12.53
2023-02-17T10:06:45.564Z,12.62
2023-02-17T10:07:45.535Z,12.74
2023-02-17T10:08:45.535Z,12.72
2023-02-17T10:09:45.628Z,12.74
2023-02-17T10:10:45.555Z,12.72
2023-02-17T10:11:45.597Z,12.74
2023-02-17T10:12:45.620Z,12.77
2023-02-17T10:13:45.612Z,12.68
2023-02-17T10:14:45.501Z,12.72
2023-02-17T10:15:45.565Z,12.68
2023-02-17T10:16:45.558Z,12.74
2023-02-17T10:17:45.574Z,12.85
2023-02-17T10:18:45.532Z,12.77
2023-02-17T10:19:45.508Z,12.74
2023-02-17T10:20:45.573Z,12.79
2023-02-17T10:21:45.590Z,12.78
2023-02-17T10:22:45.518Z,12.74
2023-02-17T10:23:45.495Z,12.77
2023-02-17T10:24:45.501Z,12.64
2023-02-17T10:25:45.565Z,12.72
2023-02-17T10:26:45.674Z,12.75
2023-02-17T10:27:45.616Z,12.68
2023-02-17T10:28:45.471Z,12.68
2023-02-17T10:29:45.532Z,12.71
2023-02-17T10:30:45.612Z,12.70
2023-02-17T10:31:45.789Z,12.75
2023-02-17T10:32:45.562Z,12.77
2023-02-17T10:33:45.496Z,12.65
2023-02-17T10:34:45.465Z,12.70
2023-02-17T10:35:45.454Z,12.65
2023-02-17T10:36:45.486Z,12.62
2023-02-17T10:37:45.559Z,12.62
2023-02-17T10:38:45.447Z,12.59
2023-02-17T10:39:45.467Z,12.67
2023-02-17T10:40:45.496Z,12.65
2023-02-17T10:41:45.442Z,12.70
2023-02-17T10:42:45.464Z,12.71
2023-02-17T10:43:45.458Z,12.90
2023-02-17T10:44:45.483Z,12.79
2023-02-17T10:45:45.449Z,12.77
2023-02-17T10:46:45.503Z,12.60
2023-02-17T10:47:45.423Z,12.71
2023-02-17T10:48:45.432Z,12.77
2023-02-17T10:49:45.412Z,12.75
2023-02-17T10:50:45.412Z,12.79
2023-02-17T10:51:45.407Z,12.79
2023-02-17T10:52:45.407Z,12.87
2023-02-17T10:53:45.405Z,12.82
2023-02-17T10:54:45.408Z,12.83
2023-02-17T10:55:45.400Z,12.83
2023-02-17T10:56:45.430Z,12.86
2023-02-17T10:57:45.403Z,12.77
2023-02-17T10:58:45.428Z,12.95
2023-02-17T10:59:45.389Z,13.04
2023-02-17T11:00:45.399Z,12.89
2023-02-17T11:01:45.388Z,12.92
2023-02-17T11:02:45.384Z,12.83
2023-02-17T11:03:45.429Z,12.78
2023-02-17T11:04:45.385Z,12.86
2023-02-17T11:05:45.386Z,12.89
2023-02-17T11:06:45.385Z,13.01
2023-02-17T11:07:45.371Z,12.97
2023-02-17T11:08:45.370Z,12.82
2023-02-17T11:09:45.385Z,13.01
2023-02-17T11:10:45.363Z,12.86
2023-02-17T11:11:45.361Z,13.03
2023-02-17T11:12:45.368Z,13.04
2023-02-17T11:13:45.355Z,12.90
2023-02-17T11:14:45.374Z,13.05
2023-02-17T11:15:45.371Z,12.96
2023-02-17T11:16:45.402Z,12.97
2023-02-17T11:17:45.339Z,13.12
2023-02-17T11:18:45.348Z,13.11
2023-02-17T11:19:45.342Z,13.14
2023-02-17T11:20:45.356Z,13.11
2023-02-17T11:21:45.352Z,13.00
2023-02-17T11:22:45.344Z,13.00
2023-02-17T11:23:45.329Z,13.01
2023-02-17T11:24:45.331Z,13.03
2023-02-17T11:25:45.325Z,13.05
2023-02-17T11:26:45.329Z,13.17
2023-02-17T11:27:45.386Z,13.17
2023-02-17T11:28:45.327Z,13.30
2023-02-17T11:29:45.317Z,13.17
2023-02-17T11:30:45.343Z,13.10
2023-02-17T11:31:45.437Z,13.17
2023-02-17T11:32:45.325Z,13.15
2023-02-17T11:33:45.300Z,13.19
2023-02-17T11:34:45.317Z,13.19
2023-02-17T11:35:45.303Z,13.20
2023-02-17T11:36:45.302Z,13.11
2023-02-17T11:37:45.302Z,13.26
2023-02-17T11:38:45.329Z,13.25
2023-02-17T11:39:45.297Z,13.25
2023-02-17T11:40:45.297Z,13.15
2023-02-17T11:41:45.284Z,13.25
2023-02-17T11:42:45.293Z,13.32
2023-02-17T11:43:45.277Z,13.42
2023-02-17T11:44:45.289Z,13.32
2023-02-17T11:45:45.304Z,13.29
2023-02-17T11:46:45.308Z,13.29
2023-02-17T11:47:45.267Z,13.30
2023-02-17T11:48:45.278Z,13.46
2023-02-17T11:49:45.266Z,13.45
2023-02-17T11:50:45.277Z,13.62
2023-02-17T11:51:45.275Z,13.54
2023-02-17T11:52:45.278Z,13.55
2023-02-17T11:53:45.262Z,13.41
2023-02-17T11:54:45.254Z,13.45
2023-02-17T11:55:45.251Z,13.55
2023-02-17T11:56:45.260Z,13.55
2023-02-17T11:57:45.775Z,13.59
2023-02-17T11:58:45.251Z,13.55
2023-02-17T11:59:45.249Z,13.55
2023-02-17T12:00:45.240Z,13.51
2023-02-17T12:01:45.237Z,13.55
2023-02-17T12:02:45.288Z,13.69
2023-02-17T12:03:45.255Z,13.62
2023-02-17T12:04:45.248Z,13.63
2023-02-17T12:05:45.232Z,13.63
2023-02-17T12:06:45.233Z,13.59
2023-02-17T12:07:45.219Z,13.59
2023-02-17T12:08:47.497Z,13.70
2023-02-17T12:09:45.233Z,13.75
2023-02-17T12:10:45.218Z,13.77
2023-02-17T12:11:45.218Z,13.78
2023-02-17T12:12:45.214Z,13.77
2023-02-17T12:13:45.206Z,13.71
2023-02-17T12:14:45.219Z,13.71
2023-02-17T12:15:45.208Z,13.78
2023-02-17T12:16:45.233Z,13.87
2023-02-17T12:17:45.199Z,13.96
2023-02-17T12:18:45.237Z,13.78
2023-02-17T12:19:45.192Z,13.85
2023-02-17T12:20:45.186Z,13.87
2023-02-17T12:21:45.183Z,13.95
2023-02-17T12:22:45.195Z,13.96
2023-02-17T12:23:45.178Z,14.06
2023-02-17T12:24:45.191Z,14.06
2023-02-17T12:25:45.186Z,13.88
2023-02-17T12:26:45.180Z,13.97
2023-02-17T12:27:45.178Z,13.97
2023-02-17T12:28:45.179Z,13.99
2023-02-17T12:29:45.183Z,13.99
2023-02-17T12:30:45.273Z,14.14
2023-02-17T12:31:45.281Z,14.17
2023-02-17T12:32:45.178Z,14.14
2023-02-17T12:33:45.158Z,14.10
2023-02-17T12:34:45.185Z,14.07
2023-02-17T12:35:45.159Z,14.07
2023-02-17T12:36:45.184Z,14.14
2023-02-17T12:37:46.860Z,14.10
2023-02-17T12:38:45.159Z,14.14
2023-02-17T12:39:45.146Z,14.15
2023-02-17T12:40:45.152Z,14.17
2023-02-17T12:41:45.149Z,14.17
2023-02-17T12:42:45.145Z,14.18
2023-02-17T12:43:46.799Z,14.17
2023-02-17T12:44:45.159Z,14.25
2023-02-17T12:45:45.176Z,14.25
2023-02-17T12:46:45.139Z,14.28
2023-02-17T12:47:45.142Z,14.36
2023-02-17T12:48:45.130Z,14.42
2023-02-17T12:49:45.128Z,14.42
2023-02-17T12:50:45.157Z,14.39
2023-02-17T12:51:45.142Z,14.42
2023-02-17T12:52:45.124Z,14.43